createdAt,value
2015-10-11T00:00:13.605Z,4.4
2015-10-11T00:01:13.559Z,4.4
2015-10-11T00:02:13.497Z,4.3
2015-10-11T00:03:13.437Z,4.3
2015-10-11T00:04:13.375Z,4.3
2015-10-11T00:05:13.315Z,4.4
2015-10-11T00:06:13.254Z,4.4
2015-10-11T00:07:13.211Z,4.3
2015-10-11T00:08:13.150Z,4.2
2015-10-11T00:09:13.091Z,4.3
2015-10-11T00:10:13.029Z,4.3
2015-10-11T00:11:12.969Z,4.2
2015-10-11T00:12:12.925Z,4.1
2015-10-11T00:13:12.864Z,4.1
2015-10-11T00:14:12.805Z,4.1
2015-10-11T00:15:12.744Z,4.2
2015-10-11T00:16:12.684Z,4.2
2015-10-11T00:17:12.641Z,4.2
2015-10-11T00:18:12.580Z,4.1
2015-10-11T00:19:12.520Z,4.2
2015-10-11T00:20:12.461Z,4.2
2015-10-11T00:21:12.416Z,4.2
2015-10-11T00:22:12.357Z,4.2
2015-10-11T00:23:12.297Z,4.2
2015-10-11T00:24:12.238Z,4.1
2015-10-11T00:25:12.177Z,4.1
2015-10-11T00:26:12.118Z,4.2
2015-10-11T00:27:12.058Z,4.2
2015-10-11T00:28:11.998Z,4.2
2015-10-11T00:29:11.954Z,4.2
2015-10-11T00:30:11.894Z,4.2
2015-10-11T00:31:11.834Z,4.2
2015-10-11T00:32:11.775Z,4.3
2015-10-11T00:33:11.731Z,4.2
2015-10-11T00:34:11.671Z,4.3
2015-10-11T00:35:11.611Z,4.3
2015-10-11T00:36:11.551Z,4.3
2015-10-11T00:37:11.491Z,4.3
2015-10-11T00:38:11.431Z,4.3
2015-10-11T00:39:11.388Z,4.2
2015-10-11T00:40:11.328Z,4.1
2015-10-11T00:41:11.268Z,4.2
2015-10-11T00:42:11.208Z,4.2
2015-10-11T00:43:11.148Z,4.1
2015-10-11T00:44:11.089Z,4.2
2015-10-11T00:45:11.044Z,4.1
2015-10-11T00:46:10.984Z,4
2015-10-11T00:47:10.925Z,4.1
2015-10-11T00:48:10.865Z,4
2015-10-11T00:49:10.805Z,4.1
2015-10-11T00:50:10.745Z,4
2015-10-11T00:51:10.685Z,3.9
2015-10-11T00:52:10.625Z,4
2015-10-11T00:53:10.582Z,4
2015-10-11T00:54:10.522Z,3.9
2015-10-11T00:55:10.462Z,4
2015-10-11T00:56:10.402Z,4
2015-10-11T00:57:10.343Z,4
2015-10-11T00:58:10.283Z,4.1
2015-10-11T00:59:10.238Z,4.1
2015-10-11T01:00:10.194Z,4.1
2015-10-11T01:01:10.120Z,4
2015-10-11T01:02:10.060Z,3.9
2015-10-11T01:03:10.000Z,3.9
2015-10-11T01:04:09.956Z,4
2015-10-11T01:05:09.896Z,3.9
2015-10-11T01:06:09.836Z,4
2015-10-11T01:07:09.777Z,4
2015-10-11T01:08:09.717Z,4
2015-10-11T01:09:09.657Z,3.9
2015-10-11T01:10:09.613Z,4
2015-10-11T01:11:09.553Z,3.9
2015-10-11T01:12:09.491Z,3.9
2015-10-11T01:13:09.430Z,3.9
2015-10-11T01:14:09.371Z,3.9
2015-10-11T01:15:09.311Z,4
2015-10-11T01:16:09.268Z,3.9
2015-10-11T01:17:09.207Z,3.8
2015-10-11T01:18:09.148Z,3.9
2015-10-11T01:19:09.087Z,3.8
2015-10-11T01:20:09.028Z,3.9
2015-10-11T01:21:08.968Z,3.8
2015-10-11T01:22:08.908Z,3.9
2015-10-11T01:23:08.864Z,3.9
2015-10-11T01:24:08.804Z,3.9
2015-10-11T01:25:08.745Z,3.9
2015-10-11T01:26:08.684Z,4
2015-10-11T01:27:08.626Z,3.9
2015-10-11T01:28:08.581Z,3.9
2015-10-11T01:29:08.521Z,3.9
2015-10-11T01:30:08.461Z,3.9
2015-10-11T01:31:08.401Z,3.9
2015-10-11T01:32:08.342Z,3.8
2015-10-11T01:33:08.281Z,3.7
2015-10-11T01:34:08.238Z,3.8
2015-10-11T01:35:08.179Z,3.7
2015-10-11T01:36:08.118Z,3.7
2015-10-11T01:37:08.059Z,3.7
2015-10-11T01:38:07.998Z,3.7
2015-10-11T01:39:07.939Z,3.7
2015-10-11T01:40:07.895Z,3.8
2015-10-11T01:41:07.836Z,3.7
2015-10-11T01:42:07.775Z,3.8
2015-10-11T01:43:07.716Z,3.8
2015-10-11T01:44:07.655Z,3.7
2015-10-11T01:45:07.596Z,3.7
2015-10-11T01:46:07.552Z,3.8
2015-10-11T01:47:07.492Z,3.8
2015-10-11T01:48:07.432Z,3.8
2015-10-11T01:49:07.372Z,3.8
2015-10-11T01:50:07.313Z,3.8
2015-10-11T01:51:07.253Z,3.9
2015-10-11T01:52:07.209Z,3.8
2015-10-11T01:53:07.149Z,3.8
2015-10-11T01:54:07.090Z,3.8
2015-10-11T01:55:07.030Z,3.8
2015-10-11T01:56:06.970Z,3.8
2015-10-11T01:57:06.926Z,3.7
2015-10-11T01:58:06.866Z,3.7
2015-10-11T01:59:06.791Z,3.7
2015-10-11T02:00:06.746Z,3.7
2015-10-11T02:01:06.686Z,3.7
2015-10-11T02:02:06.643Z,3.7
2015-10-11T02:03:06.567Z,3.6
2015-10-11T02:04:06.508Z,3.7
2015-10-11T02:05:06.463Z,3.6
2015-10-11T02:06:06.401Z,3.6
2015-10-11T02:07:06.341Z,3.7
2015-10-11T02:08:06.281Z,3.6
2015-10-11T02:09:06.238Z,3.6
2015-10-11T02:10:06.178Z,3.7
2015-10-11T02:11:06.118Z,3.6
2015-10-11T02:12:06.058Z,3.7
2015-10-11T02:13:05.998Z,3.7
2015-10-11T02:14:05.938Z,3.7
2015-10-11T02:15:05.878Z,3.6
2015-10-11T02:16:05.849Z,3.5
2015-10-11T02:17:05.775Z,3.6
2015-10-11T02:18:05.715Z,3.5
2015-10-11T02:19:05.671Z,3.5
2015-10-11T02:20:05.596Z,3.5
2015-10-11T02:21:05.536Z,3.5
2015-10-11T02:22:05.491Z,3.5
2015-10-11T02:23:05.415Z,3.5
2015-10-11T02:24:05.388Z,3.5
2015-10-11T02:25:05.312Z,3.5
2015-10-11T02:26:05.252Z,3.6
2015-10-11T02:27:05.209Z,3.5
2015-10-11T02:28:05.149Z,3.6
2015-10-11T02:29:05.089Z,3.6
2015-10-11T02:30:05.029Z,3.6
2015-10-11T02:31:04.970Z,3.6
2015-10-11T02:32:04.909Z,3.6
2015-10-11T02:33:04.850Z,3.6
2015-10-11T02:34:04.807Z,3.6
2015-10-11T02:35:04.731Z,3.5
2015-10-11T02:36:04.687Z,3.4
2015-10-11T02:37:04.626Z,3.4
2015-10-11T02:38:04.567Z,3.5
2015-10-11T02:39:04.507Z,3.5
2015-10-11T02:40:04.463Z,3.4
2015-10-11T02:41:04.387Z,3.3
2015-10-11T02:42:04.343Z,3.5
2015-10-11T02:43:04.283Z,3.4
2015-10-11T02:44:04.223Z,3.4
2015-10-11T02:45:04.165Z,3.4
2015-10-11T02:46:04.104Z,3.4
2015-10-11T02:47:04.060Z,3.4
2015-10-11T02:48:04.000Z,3.5
2015-10-11T02:49:03.940Z,3.4
2015-10-11T02:50:03.881Z,3.4
2015-10-11T02:51:03.821Z,3.3
2015-10-11T02:52:03.761Z,3.3
2015-10-11T02:53:03.717Z,3.3
2015-10-11T02:54:03.641Z,3.2
2015-10-11T02:55:03.581Z,3.3
2015-10-11T02:56:03.538Z,3.2
2015-10-11T02:57:03.475Z,3.3
2015-10-11T02:58:03.416Z,3.2
2015-10-11T02:59:03.356Z,3.3
2015-10-11T03:00:03.297Z,3.2
2015-10-11T03:01:03.237Z,3.2
2015-10-11T03:02:03.192Z,3.1
2015-10-11T03:03:03.116Z,3.2
2015-10-11T03:04:03.057Z,3.2
2015-10-11T03:05:03.028Z,3.3
2015-10-11T03:06:02.938Z,3.4
2015-10-11T03:07:02.925Z,3.4
2015-10-11T03:08:02.834Z,3.4
2015-10-11T03:09:02.774Z,3.3
2015-10-11T03:10:02.714Z,3.3
2015-10-11T03:11:02.655Z,3.4
2015-10-11T03:12:02.595Z,3.4
2015-10-11T03:13:02.550Z,3.4
2015-10-11T03:14:02.491Z,3.4
2015-10-11T03:15:02.431Z,3.4
2015-10-11T03:16:02.371Z,3.4
2015-10-11T03:17:02.311Z,3.4
2015-10-11T03:18:02.251Z,3.3
2015-10-11T03:19:02.224Z,3.3
2015-10-11T03:20:02.148Z,3.3
2015-10-11T03:21:02.088Z,3.2
2015-10-11T03:22:02.028Z,3.3
2015-10-11T03:23:01.968Z,3.3
2015-10-11T03:24:01.909Z,3.3
2015-10-11T03:25:01.849Z,3.3
2015-10-11T03:26:01.805Z,3.2
2015-10-11T03:27:01.745Z,3.1
2015-10-11T03:28:01.685Z,3.2
2015-10-11T03:29:01.626Z,3.3
2015-10-11T03:30:01.565Z,3.3
2015-10-11T03:31:01.506Z,3.3
2015-10-11T03:32:01.446Z,3.3
2015-10-11T03:33:01.387Z,3.3
2015-10-11T03:34:01.327Z,3.3
2015-10-11T03:35:01.267Z,3.3
2015-10-11T03:36:01.223Z,3.2
2015-10-11T03:37:01.163Z,3.2
2015-10-11T03:38:01.103Z,3.2
2015-10-11T03:39:01.043Z,3.2
2015-10-11T03:40:00.983Z,3.3
2015-10-11T03:41:00.924Z,3.3
2015-10-11T03:42:00.864Z,3.3
2015-10-11T03:43:00.820Z,3.3
2015-10-11T03:44:00.760Z,3.3
2015-10-11T03:45:00.701Z,3.3
2015-10-11T03:46:00.640Z,3.3
2015-10-11T03:47:00.581Z,3.2
2015-10-11T03:48:00.537Z,3.2
2015-10-11T03:49:00.462Z,3.2
2015-10-11T03:50:00.401Z,3.2
2015-10-11T03:51:00.357Z,3.2
2015-10-11T03:52:00.298Z,3.3
2015-10-11T03:53:00.238Z,3.3
2015-10-11T03:54:00.176Z,3.3
2015-10-11T03:55:00.115Z,3.3
2015-10-11T03:56:00.087Z,3.2
2015-10-11T03:57:00.028Z,3.2
2015-10-11T03:57:59.953Z,3.2
2015-10-11T03:58:59.892Z,3.2
2015-10-11T03:59:59.832Z,3.2
2015-10-11T04:00:59.772Z,3.3
2015-10-11T04:01:59.713Z,3.2
2015-10-11T04:02:59.653Z,3.2
2015-10-11T04:03:59.593Z,3.3
2015-10-11T04:04:59.534Z,3.2
2015-10-11T04:05:59.474Z,3
2015-10-11T04:06:59.414Z,3.1
2015-10-11T04:07:59.369Z,3.1
2015-10-11T04:08:59.310Z,3.2
2015-10-11T04:09:59.250Z,3.1
2015-10-11T04:10:59.191Z,3.1
2015-10-11T04:11:59.130Z,3
2015-10-11T04:12:59.072Z,3.1
2015-10-11T04:13:59.028Z,3.1
2015-10-11T04:14:58.967Z,3
2015-10-11T04:15:58.922Z,3
2015-10-11T04:16:58.848Z,3
2015-10-11T04:17:58.788Z,3.1
2015-10-11T04:18:58.728Z,3.1
2015-10-11T04:19:58.684Z,3
2015-10-11T04:20:58.624Z,3.1
2015-10-11T04:21:58.564Z,3
2015-10-11T04:22:58.505Z,3
2015-10-11T04:23:58.445Z,2.9
2015-10-11T04:24:58.385Z,2.8
2015-10-11T04:25:58.325Z,2.9
2015-10-11T04:26:58.282Z,2.9
2015-10-11T04:27:58.222Z,3
2015-10-11T04:28:58.162Z,3
2015-10-11T04:29:58.102Z,2.9
2015-10-11T04:30:58.057Z,3
2015-10-11T04:31:57.982Z,2.9
2015-10-11T04:32:57.939Z,2.8
2015-10-11T04:33:57.879Z,2.8
2015-10-11T04:34:57.818Z,2.8
2015-10-11T04:35:57.760Z,2.8
2015-10-11T04:36:57.699Z,2.8
2015-10-11T04:37:57.640Z,2.8
2015-10-11T04:38:57.596Z,2.8
2015-10-11T04:39:57.535Z,2.9
2015-10-11T04:40:57.476Z,3
2015-10-11T04:41:57.413Z,3
2015-10-11T04:42:57.354Z,2.9
2015-10-11T04:43:57.310Z,2.8
2015-10-11T04:44:57.234Z,2.8
2015-10-11T04:45:57.190Z,2.8
2015-10-11T04:46:57.130Z,2.8
2015-10-11T04:47:57.071Z,2.9
2015-10-11T04:48:57.010Z,2.9
2015-10-11T04:49:56.951Z,2.8
2015-10-11T04:50:56.891Z,2.8
2015-10-11T04:51:56.832Z,2.8
2015-10-11T04:52:56.787Z,2.7
2015-10-11T04:53:56.712Z,2.7
2015-10-11T04:54:56.668Z,2.7
2015-10-11T04:55:56.608Z,2.7
2015-10-11T04:56:56.548Z,2.8
2015-10-11T04:57:56.489Z,2.8
2015-10-11T04:58:56.428Z,2.8
2015-10-11T04:59:56.369Z,2.7
2015-10-11T05:00:56.325Z,2.7
2015-10-11T05:01:56.264Z,2.7
2015-10-11T05:02:56.206Z,2.8
2015-10-11T05:03:56.145Z,2.8
2015-10-11T05:04:56.101Z,2.7
2015-10-11T05:05:56.025Z,2.6
2015-10-11T05:06:55.997Z,2.6
2015-10-11T05:07:55.922Z,2.6
2015-10-11T05:08:55.862Z,2.6
2015-10-11T05:09:55.817Z,2.6
2015-10-11T05:10:55.743Z,2.6
2015-10-11T05:11:55.688Z,2.7
2015-10-11T05:12:55.628Z,2.6
2015-10-11T05:13:55.569Z,2.6
2015-10-11T05:14:55.509Z,2.6
2015-10-11T05:15:55.464Z,2.7
2015-10-11T05:16:55.388Z,2.6
2015-10-11T05:17:55.344Z,2.7
2015-10-11T05:18:55.285Z,2.5
2015-10-11T05:19:55.225Z,2.4
2015-10-11T05:20:55.181Z,2.4
2015-10-11T05:21:55.106Z,2.6
2015-10-11T05:22:55.046Z,2.6
2015-10-11T05:23:54.986Z,2.6
2015-10-11T05:24:54.942Z,2.7
2015-10-11T05:25:54.882Z,2.7
2015-10-11T05:26:54.823Z,2.7
2015-10-11T05:27:54.763Z,2.7
2015-10-11T05:28:54.719Z,2.5
2015-10-11T05:29:54.643Z,2.6
2015-10-11T05:30:54.583Z,2.6
2015-10-11T05:31:54.540Z,2.5
2015-10-11T05:32:54.480Z,2.5
2015-10-11T05:33:54.420Z,2.6
2015-10-11T05:34:54.360Z,2.5
2015-10-11T05:35:54.300Z,2.5
2015-10-11T05:36:54.240Z,2.5
2015-10-11T05:37:54.181Z,2.5
2015-10-11T05:38:54.356Z,2.5
2015-10-11T05:39:54.060Z,2.5
2015-10-11T05:40:54.030Z,2.4
2015-10-11T05:41:53.954Z,2.4
2015-10-11T05:42:53.895Z,2.4
2015-10-11T05:43:53.835Z,2.4
2015-10-11T05:44:53.790Z,2.5
2015-10-11T05:45:53.715Z,2.4
2015-10-11T05:46:53.656Z,2.5
2015-10-11T05:47:53.596Z,2.5
2015-10-11T05:48:53.552Z,2.4
2015-10-11T05:49:53.492Z,2.4
2015-10-11T05:50:53.432Z,2.4
2015-10-11T05:51:53.373Z,2.4
2015-10-11T05:52:53.312Z,2.4
2015-10-11T05:53:53.253Z,2.5
2015-10-11T05:54:53.193Z,2.4
2015-10-11T05:55:53.134Z,2.5
2015-10-11T05:56:53.073Z,2.5
2015-10-11T05:57:53.014Z,2.6
2015-10-11T05:58:52.970Z,2.6
2015-10-11T05:59:52.910Z,2.6
2015-10-11T06:00:52.851Z,2.6
2015-10-11T06:01:52.806Z,2.6
2015-10-11T06:02:52.731Z,2.5
2015-10-11T06:03:52.671Z,2.5
2015-10-11T06:04:52.612Z,2.5
2015-10-11T06:05:52.551Z,2.5
2015-10-11T06:06:52.523Z,2.5
2015-10-11T06:07:52.448Z,2.5
2015-10-11T06:08:52.389Z,2.5
2015-10-11T06:09:52.328Z,2.5
2015-10-11T06:10:52.268Z,2.6
2015-10-11T06:11:52.209Z,2.7
2015-10-11T06:12:52.149Z,2.7
2015-10-11T06:13:52.105Z,2.7
2015-10-11T06:14:52.044Z,2.7
2015-10-11T06:15:51.986Z,2.7
2015-10-11T06:16:51.925Z,2.7
2015-10-11T06:17:51.866Z,2.8
2015-10-11T06:18:51.822Z,2.8
2015-10-11T06:19:51.747Z,2.8
2015-10-11T06:20:51.702Z,2.8
2015-10-11T06:21:51.642Z,2.9
2015-10-11T06:22:51.583Z,2.9
2015-10-11T06:23:51.522Z,3
2015-10-11T06:24:51.463Z,3
2015-10-11T06:25:51.403Z,3
2015-10-11T06:26:51.344Z,3.1
2015-10-11T06:27:51.300Z,3.1
2015-10-11T06:28:51.240Z,3.2
2015-10-11T06:29:51.180Z,3.1
2015-10-11T06:30:51.119Z,3
2015-10-11T06:31:51.060Z,3
2015-10-11T06:32:50.997Z,3.1
2015-10-11T06:33:50.938Z,3.1
2015-10-11T06:34:50.878Z,3.2
2015-10-11T06:35:50.834Z,3.3
2015-10-11T06:36:50.775Z,3.4
2015-10-11T06:37:50.715Z,3.4
2015-10-11T06:38:50.655Z,3.5
2015-10-11T06:39:50.595Z,3.5
2015-10-11T06:40:50.535Z,3.7
2015-10-11T06:41:50.490Z,3.7
2015-10-11T06:42:50.431Z,3.7
2015-10-11T06:43:50.371Z,3.7
2015-10-11T06:44:50.312Z,3.7
2015-10-11T06:45:50.252Z,3.8
2015-10-11T06:46:50.193Z,3.9
2015-10-11T06:47:50.132Z,4.1
2015-10-11T06:48:50.073Z,4
2015-10-11T06:49:50.029Z,4
2015-10-11T06:50:49.953Z,4.1
2015-10-11T06:51:49.909Z,4.1
2015-10-11T06:52:49.849Z,4
2015-10-11T06:53:49.790Z,4
2015-10-11T06:54:49.729Z,4.1
2015-10-11T06:55:49.670Z,4.1
2015-10-11T06:56:49.625Z,4.2
2015-10-11T06:57:49.550Z,4.2
2015-10-11T06:58:49.506Z,4.3
2015-10-11T06:59:49.446Z,4.3
2015-10-11T07:00:49.387Z,4.4
2015-10-11T07:01:49.343Z,4.4
2015-10-11T07:02:49.267Z,4.6
2015-10-11T07:03:49.223Z,4.5
2015-10-11T07:04:49.163Z,4.6
2015-10-11T07:05:49.103Z,4.7
2015-10-11T07:06:49.059Z,4.7
2015-10-11T07:07:48.983Z,4.8
2015-10-11T07:08:48.939Z,4.7
2015-10-11T07:09:48.880Z,4.8
2015-10-11T07:10:48.820Z,4.9
2015-10-11T07:11:48.760Z,4.7
2015-10-11T07:12:48.717Z,4.7
2015-10-11T07:13:48.657Z,4.8
2015-10-11T07:14:48.597Z,4.9
2015-10-11T07:15:48.536Z,4.9
2015-10-11T07:16:48.509Z,4.9
2015-10-11T07:17:48.417Z,4.9
2015-10-11T07:18:48.357Z,4.8
2015-10-11T07:19:48.313Z,4.9
2015-10-11T07:20:48.253Z,4.9
2015-10-11T07:21:48.194Z,4.9
2015-10-11T07:22:48.134Z,4.9
2015-10-11T07:23:48.090Z,4.8
2015-10-11T07:24:48.031Z,4.8
2015-10-11T07:25:47.971Z,4.9
2015-10-11T07:26:47.911Z,4.9
2015-10-11T07:27:47.851Z,5
2015-10-11T07:28:47.807Z,5
2015-10-11T07:29:47.747Z,5
2015-10-11T07:30:47.687Z,5
2015-10-11T07:31:47.628Z,4.9
2015-10-11T07:32:47.568Z,5
2015-10-11T07:33:47.508Z,5
2015-10-11T07:34:47.463Z,5.1
2015-10-11T07:35:47.420Z,5
2015-10-11T07:36:47.344Z,5
2015-10-11T07:37:47.282Z,4.9
2015-10-11T07:38:47.221Z,5
2015-10-11T07:39:47.162Z,5.1
2015-10-11T07:40:47.118Z,5.2
2015-10-11T07:41:47.058Z,5.2
2015-10-11T07:42:46.999Z,5.2
2015-10-11T07:43:46.938Z,5.2
2015-10-11T07:44:46.895Z,5.2
2015-10-11T07:45:46.819Z,5.3
2015-10-11T07:46:46.760Z,5.4
2015-10-11T07:47:46.715Z,5.5
2015-10-11T07:48:46.656Z,5.5
2015-10-11T07:49:46.596Z,5.6
2015-10-11T07:50:46.551Z,5.6
2015-10-11T07:51:46.491Z,5.4
2015-10-11T07:52:46.432Z,5.5
2015-10-11T07:53:46.373Z,5.3
2015-10-11T07:54:46.312Z,5.2
2015-10-11T07:55:46.253Z,5.2
2015-10-11T07:56:46.209Z,5.3
2015-10-11T07:57:46.149Z,5.4
2015-10-11T07:58:46.090Z,5.5
2015-10-11T07:59:46.045Z,5.5
2015-10-11T08:00:45.969Z,5.5
2015-10-11T08:01:45.926Z,5.3
2015-10-11T08:02:45.865Z,5.3
2015-10-11T08:03:45.806Z,5.4
2015-10-11T08:04:45.761Z,5.5
2015-10-11T08:05:45.702Z,5.5
2015-10-11T08:06:45.643Z,5.7
2015-10-11T08:07:45.583Z,5.8
2015-10-11T08:08:45.523Z,5.8
2015-10-11T08:09:45.479Z,5.8
2015-10-11T08:10:45.419Z,6
2015-10-11T08:11:45.359Z,6
2015-10-11T08:12:45.299Z,5.9
2015-10-11T08:13:45.287Z,6
2015-10-11T08:14:45.195Z,6
2015-10-11T08:15:45.136Z,5.9
2015-10-11T08:16:45.075Z,5.9
2015-10-11T08:17:45.016Z,6
2015-10-11T08:18:44.972Z,6.1
2015-10-11T08:19:44.912Z,6
2015-10-11T08:20:44.853Z,6
2015-10-11T08:21:44.825Z,6
2015-10-11T08:22:44.734Z,5.9
2015-10-11T08:23:44.689Z,5.9
2015-10-11T08:24:44.629Z,5.9
2015-10-11T08:25:44.569Z,6.1
2015-10-11T08:26:44.525Z,6.2
2015-10-11T08:27:44.466Z,6.3
2015-10-11T08:28:44.403Z,6.4
2015-10-11T08:29:44.344Z,6.3
2015-10-11T08:30:44.283Z,6.3
2015-10-11T08:31:44.239Z,6.3
2015-10-11T08:32:44.179Z,6.3
2015-10-11T08:33:44.135Z,6.3
2015-10-11T08:34:44.060Z,6.3
2015-10-11T08:35:44.016Z,6.4
2015-10-11T08:36:43.956Z,6.5
2015-10-11T08:37:43.897Z,6.4
2015-10-11T08:38:43.836Z,6.3
2015-10-11T08:39:43.793Z,6.4
2015-10-11T08:40:43.733Z,6.3
2015-10-11T08:41:43.673Z,6.2
2015-10-11T08:42:43.629Z,6.3
2015-10-11T08:43:43.554Z,6.3
2015-10-11T08:44:43.509Z,6.3
2015-10-11T08:45:43.449Z,6.4
2015-10-11T08:46:43.390Z,6.5
2015-10-11T08:47:43.346Z,6.5
2015-10-11T08:48:43.286Z,6.5
2015-10-11T08:49:43.226Z,6.3
2015-10-11T08:50:43.166Z,6.4
2015-10-11T08:51:43.107Z,6.5
2015-10-11T08:52:43.062Z,6.5
2015-10-11T08:53:43.002Z,6.6
2015-10-11T08:54:42.943Z,6.6
2015-10-11T08:55:42.883Z,6.6
2015-10-11T08:56:42.814Z,6.7
2015-10-11T08:57:42.753Z,6.8
2015-10-11T08:58:42.676Z,6.8
2015-10-11T08:59:42.598Z,6.7
2015-10-11T09:00:42.537Z,6.7
2015-10-11T09:01:42.467Z,6.7
2015-10-11T09:02:42.400Z,6.8
2015-10-11T09:03:42.334Z,6.7
2015-10-11T09:04:42.267Z,6.7
2015-10-11T09:05:42.201Z,6.8
2015-10-11T09:06:42.154Z,6.9
2015-10-11T09:07:42.108Z,6.9
2015-10-11T09:08:42.045Z,6.9
2015-10-11T09:09:41.983Z,7
2015-10-11T09:10:41.906Z,6.8
2015-10-11T09:11:41.860Z,6.7
2015-10-11T09:12:41.799Z,6.8
2015-10-11T09:13:41.748Z,7
2015-10-11T09:14:41.687Z,7.1
2015-10-11T09:15:41.627Z,7.1
2015-10-11T09:16:41.583Z,7.2
2015-10-11T09:17:41.523Z,7.3
2015-10-11T09:18:41.464Z,7.1
2015-10-11T09:19:41.403Z,7
2015-10-11T09:20:41.344Z,7
2015-10-11T09:21:41.299Z,7
2015-10-11T09:22:41.239Z,7.1
2015-10-11T09:23:41.180Z,7
2015-10-11T09:24:41.120Z,7.1
2015-10-11T09:25:41.076Z,7.1
2015-10-11T09:26:41.016Z,7.1
2015-10-11T09:27:40.956Z,7.2
2015-10-11T09:28:40.912Z,7.3
2015-10-11T09:29:40.851Z,7.4
2015-10-11T09:30:40.793Z,7.5
2015-10-11T09:31:40.732Z,7.4
2015-10-11T09:32:40.673Z,7.4
2015-10-11T09:33:40.628Z,7.5
2015-10-11T09:34:40.584Z,7.5
2015-10-11T09:35:40.509Z,7.5
2015-10-11T09:36:40.449Z,7.7
2015-10-11T09:37:40.404Z,7.8
2015-10-11T09:38:40.345Z,7.6
2015-10-11T09:39:40.285Z,7.7
2015-10-11T09:40:40.225Z,7.8
2015-10-11T09:41:40.181Z,7.9
2015-10-11T09:42:40.122Z,7.9
2015-10-11T09:43:40.061Z,8
2015-10-11T09:44:40.017Z,8
2015-10-11T09:45:39.958Z,8
2015-10-11T09:46:39.895Z,8
2015-10-11T09:47:39.851Z,8
2015-10-11T09:48:39.791Z,8.1
2015-10-11T09:49:39.731Z,8.1
2015-10-11T09:50:39.672Z,8.1
2015-10-11T09:51:39.612Z,8.2
2015-10-11T09:52:39.567Z,8.2
2015-10-11T09:53:39.507Z,8.1
2015-10-11T09:54:39.447Z,8.1
2015-10-11T09:55:39.388Z,8
2015-10-11T09:56:39.344Z,8
2015-10-11T09:57:39.284Z,8.1
2015-10-11T09:58:39.224Z,8.1
2015-10-11T09:59:39.165Z,8.2
2015-10-11T10:00:39.121Z,8.2
2015-10-11T10:01:39.060Z,8.1
2015-10-11T10:02:39.001Z,8.2
2015-10-11T10:03:38.940Z,8.2
2015-10-11T10:04:38.897Z,8.3
2015-10-11T10:05:38.837Z,8.3
2015-10-11T10:06:38.777Z,8.3
2015-10-11T10:07:38.732Z,8.3
2015-10-11T10:08:38.674Z,8.4
2015-10-11T10:09:38.613Z,8.4
2015-10-11T10:10:38.554Z,8.2
2015-10-11T10:11:38.509Z,8.3
2015-10-11T10:12:38.450Z,8.4
2015-10-11T10:13:38.390Z,8.4
2015-10-11T10:14:38.331Z,8.5
2015-10-11T10:15:38.286Z,8.5
2015-10-11T10:16:38.226Z,8.5
2015-10-11T10:17:38.166Z,8.5
2015-10-11T10:18:38.122Z,8.6
2015-10-11T10:19:38.062Z,8.5
2015-10-11T10:20:38.003Z,8.5
2015-10-11T10:21:37.943Z,8.6
2015-10-11T10:22:37.899Z,8.6
2015-10-11T10:23:37.855Z,8.6
2015-10-11T10:24:37.778Z,8.6
2015-10-11T10:25:37.735Z,8.6
2015-10-11T10:26:37.675Z,8.5
2015-10-11T10:27:37.616Z,8.5
2015-10-11T10:28:37.555Z,8.6
2015-10-11T10:29:37.511Z,8.7
2015-10-11T10:30:37.452Z,8.7
2015-10-11T10:31:37.392Z,8.7
2015-10-11T10:32:37.348Z,8.7
2015-10-11T10:33:37.288Z,8.7
2015-10-11T10:34:37.227Z,8.8
2015-10-11T10:35:37.183Z,8.8
2015-10-11T10:36:37.124Z,8.7
2015-10-11T10:37:37.063Z,8.7
2015-10-11T10:38:37.020Z,8.6
2015-10-11T10:39:36.960Z,8.6
2015-10-11T10:40:36.901Z,8.6
2015-10-11T10:41:36.857Z,8.8
2015-10-11T10:42:36.796Z,8.9
2015-10-11T10:43:36.736Z,8.9
2015-10-11T10:44:36.677Z,8.9
2015-10-11T10:45:36.632Z,8.8
2015-10-11T10:46:36.573Z,8.8
2015-10-11T10:47:36.528Z,8.8
2015-10-11T10:48:36.468Z,8.8
2015-10-11T10:49:36.409Z,8.9
2015-10-11T10:50:36.348Z,8.9
2015-10-11T10:51:36.305Z,8.9
2015-10-11T10:52:36.245Z,8.8
2015-10-11T10:53:36.185Z,8.9
2015-10-11T10:54:36.126Z,8.9
2015-10-11T10:55:36.081Z,8.9
2015-10-11T10:56:36.022Z,8.9
2015-10-11T10:57:35.978Z,8.8
2015-10-11T10:58:35.918Z,8.8
2015-10-11T10:59:35.858Z,9
2015-10-11T11:00:35.798Z,9
2015-10-11T11:01:35.753Z,9.1
2015-10-11T11:02:35.694Z,9.1
2015-10-11T11:03:35.634Z,9.1
2015-10-11T11:04:35.590Z,9
2015-10-11T11:05:35.530Z,9.1
2015-10-11T11:06:35.486Z,9
2015-10-11T11:07:35.426Z,9
2015-10-11T11:08:35.366Z,9.1
2015-10-11T11:09:35.322Z,9.1
2015-10-11T11:10:35.264Z,9.1
2015-10-11T11:11:35.203Z,9.1
2015-10-11T11:12:35.158Z,9.1
2015-10-11T11:13:35.099Z,9.1
2015-10-11T11:14:35.039Z,9
2015-10-11T11:15:34.996Z,9
2015-10-11T11:16:34.936Z,9.1
2015-10-11T11:17:34.876Z,9.1
2015-10-11T11:18:34.832Z,9.1
2015-10-11T11:19:34.772Z,9.1
2015-10-11T11:20:34.713Z,9.1
2015-10-11T11:21:34.652Z,9.1
2015-10-11T11:22:34.608Z,9.1
2015-10-11T11:23:34.549Z,9.1
2015-10-11T11:24:34.489Z,9.3
2015-10-11T11:25:34.444Z,9.3
2015-10-11T11:26:34.385Z,9.2
2015-10-11T11:27:34.341Z,9.3
2015-10-11T11:28:34.281Z,9.3
2015-10-11T11:29:34.221Z,9.4
2015-10-11T11:30:34.177Z,9.5
2015-10-11T11:31:34.117Z,9.6
2015-10-11T11:32:34.054Z,9.6
2015-10-11T11:33:34.026Z,9.5
2015-10-11T11:34:33.951Z,9.4
2015-10-11T11:35:33.907Z,9.3
2015-10-11T11:36:33.847Z,9.3
2015-10-11T11:37:33.787Z,9.3
2015-10-11T11:38:33.743Z,9.3
2015-10-11T11:39:33.684Z,9.3
2015-10-11T11:40:33.623Z,9.3
2015-10-11T11:41:33.580Z,9.4
2015-10-11T11:42:33.535Z,9.3
2015-10-11T11:43:33.460Z,9.3
2015-10-11T11:44:33.415Z,9.4
2015-10-11T11:45:33.357Z,9.3
2015-10-11T11:46:33.296Z,9.4
2015-10-11T11:47:33.252Z,9.4
2015-10-11T11:48:33.193Z,9.5
2015-10-11T11:49:33.132Z,9.4
2015-10-11T11:50:33.089Z,9.5
2015-10-11T11:51:33.028Z,9.5
2015-10-11T11:52:32.984Z,9.6
2015-10-11T11:53:32.926Z,9.6
2015-10-11T11:54:32.865Z,9.5
2015-10-11T11:55:32.806Z,9.4
2015-10-11T11:56:32.762Z,9.5
2015-10-11T11:57:32.718Z,9.5
2015-10-11T11:58:32.657Z,9.5
2015-10-11T11:59:32.598Z,9.5
2015-10-11T12:00:32.538Z,9.4
2015-10-11T12:01:32.479Z,9.5
2015-10-11T12:02:32.434Z,9.6
2015-10-11T12:03:32.375Z,9.6
2015-10-11T12:04:32.331Z,9.7
2015-10-11T12:05:32.270Z,9.7
2015-10-11T12:06:32.211Z,9.7
2015-10-11T12:07:32.166Z,9.5
2015-10-11T12:08:32.106Z,9.5
2015-10-11T12:09:32.048Z,9.5
2015-10-11T12:10:32.003Z,9.6
2015-10-11T12:11:31.943Z,9.6
2015-10-11T12:12:31.883Z,9.7
2015-10-11T12:13:31.839Z,9.7
2015-10-11T12:14:31.780Z,9.8
2015-10-11T12:15:31.720Z,9.8
2015-10-11T12:16:31.675Z,9.8
2015-10-11T12:17:31.616Z,9.9
2015-10-11T12:18:31.553Z,9.9
2015-10-11T12:19:31.508Z,9.9
2015-10-11T12:20:31.450Z,9.8
2015-10-11T12:21:31.390Z,9.8
2015-10-11T12:22:31.345Z,9.7
2015-10-11T12:23:31.286Z,9.7
2015-10-11T12:24:31.225Z,9.8
2015-10-11T12:25:31.182Z,9.9
2015-10-11T12:26:31.121Z,9.9
2015-10-11T12:27:31.078Z,10
2015-10-11T12:28:31.018Z,10.1
2015-10-11T12:29:30.958Z,10.1
2015-10-11T12:30:30.914Z,10.1
2015-10-11T12:31:30.854Z,10.1
2015-10-11T12:32:30.810Z,10
2015-10-11T12:33:30.749Z,10
2015-10-11T12:34:30.691Z,10
2015-10-11T12:35:30.646Z,10
2015-10-11T12:36:30.587Z,10
2015-10-11T12:37:30.527Z,9.9
2015-10-11T12:38:30.482Z,9.9
2015-10-11T12:39:30.423Z,9.9
2015-10-11T12:40:30.379Z,9.9
2015-10-11T12:41:30.319Z,9.8
2015-10-11T12:42:30.260Z,9.7
2015-10-11T12:43:30.200Z,9.7
2015-10-11T12:44:30.155Z,9.8
2015-10-11T12:45:30.096Z,9.9
2015-10-11T12:46:30.035Z,10
2015-10-11T12:47:29.993Z,10
2015-10-11T12:48:29.932Z,10
2015-10-11T12:49:29.873Z,10
2015-10-11T12:50:29.829Z,10
2015-10-11T12:51:29.769Z,10
2015-10-11T12:52:29.724Z,10
2015-10-11T12:53:29.665Z,10.1
2015-10-11T12:54:29.605Z,10.1
2015-10-11T12:55:29.560Z,10.1
2015-10-11T12:56:29.501Z,10.2
2015-10-11T12:57:29.441Z,10.3
2015-10-11T12:58:29.398Z,10.3
2015-10-11T12:59:29.338Z,10.1
2015-10-11T13:00:29.278Z,10.1
2015-10-11T13:01:29.233Z,10
2015-10-11T13:02:29.174Z,9.9
2015-10-11T13:03:29.115Z,9.9
2015-10-11T13:04:29.070Z,10
2015-10-11T13:05:29.010Z,10
2015-10-11T13:06:28.950Z,10
2015-10-11T13:07:28.906Z,10
2015-10-11T13:08:28.846Z,10
2015-10-11T13:09:28.803Z,10
2015-10-11T13:10:28.743Z,10.1
2015-10-11T13:11:28.681Z,10
2015-10-11T13:12:28.620Z,10.1
2015-10-11T13:13:28.576Z,10.1
2015-10-11T13:14:28.532Z,10.2
2015-10-11T13:15:28.487Z,10.2
2015-10-11T13:16:28.569Z,10.2
2015-10-11T13:17:28.368Z,10.2
2015-10-11T13:18:28.308Z,10.1
2015-10-11T13:19:28.248Z,10.1
2015-10-11T13:20:28.205Z,10.1
2015-10-11T13:21:28.145Z,10.2
2015-10-11T13:22:28.100Z,10.2
2015-10-11T13:23:28.041Z,10.1
2015-10-11T13:24:27.981Z,10.2
2015-10-11T13:25:27.936Z,10.2
2015-10-11T13:26:27.877Z,10.2
2015-10-11T13:27:27.817Z,10.2
2015-10-11T13:28:27.773Z,10.2
2015-10-11T13:29:27.729Z,10.2
2015-10-11T13:30:27.669Z,10.2
2015-10-11T13:31:27.610Z,10.3
2015-10-11T13:32:27.550Z,10.2
2015-10-11T13:33:27.506Z,10.2
2015-10-11T13:34:27.446Z,10.2
2015-10-11T13:35:27.386Z,10.2
2015-10-11T13:36:27.341Z,10.1
2015-10-11T13:37:27.298Z,10.2
2015-10-11T13:38:27.222Z,10.2
2015-10-11T13:39:27.178Z,10.2
2015-10-11T13:40:27.119Z,10.3
2015-10-11T13:41:27.074Z,10.3
2015-10-11T13:42:27.015Z,10.3
2015-10-11T13:43:26.970Z,10.3
2015-10-11T13:44:26.910Z,10.3
2015-10-11T13:45:26.851Z,10.2
2015-10-11T13:46:26.807Z,10.2
2015-10-11T13:47:26.746Z,10.3
2015-10-11T13:48:26.687Z,10.2
2015-10-11T13:49:26.643Z,10.2